createdAt,value
2022-10-28T00:01:22.382Z,13.60
2022-10-28T00:03:57.603Z,13.60
2022-10-28T00:06:32.607Z,13.70
2022-10-28T00:09:00.582Z,13.70
2022-10-28T00:11:34.137Z,13.60
2022-10-28T00:14:06.760Z,13.60
2022-10-28T00:16:39.373Z,13.60
2022-10-28T00:19:12.475Z,13.60
2022-10-28T00:21:45.372Z,13.60
2022-10-28T00:24:14.125Z,13.60
2022-10-28T00:26:43.305Z,13.60
2022-10-28T00:29:14.079Z,13.50
2022-10-28T00:31:42.177Z,13.60
2022-10-28T00:34:18.530Z,13.50
2022-10-28T00:36:47.469Z,13.50
2022-10-28T00:39:16.247Z,13.50
2022-10-28T00:41:48.688Z,13.50
2022-10-28T00:44:41.166Z,13.50
2022-10-28T00:47:39.041Z,13.50
2022-10-28T00:50:24.748Z,13.50
2022-10-28T00:52:57.958Z,13.40
2022-10-28T00:55:27.307Z,13.50
2022-10-28T00:57:56.880Z,13.40
2022-10-28T01:00:25.969Z,13.40
2022-10-28T01:02:53.559Z,13.30
2022-10-28T01:05:24.574Z,13.30
2022-10-28T01:07:54.234Z,13.30
2022-10-28T01:10:28.851Z,13.30
2022-10-28T01:13:06.089Z,13.30
2022-10-28T01:15:55.318Z,13.20
2022-10-28T01:18:47.453Z,13.20
2022-10-28T01:21:20.524Z,13.10
2022-10-28T01:24:09.333Z,13.10
2022-10-28T01:27:03.016Z,13.10
2022-10-28T01:29:59.750Z,13.10
2022-10-28T01:32:42.314Z,13.20
2022-10-28T01:35:26.611Z,13.20
2022-10-28T01:38:03.439Z,13.20
2022-10-28T01:41:09.036Z,13.20
2022-10-28T01:44:13.890Z,13.10
2022-10-28T01:47:09.645Z,13.10
2022-10-28T01:49:48.309Z,13.10
2022-10-28T01:52:21.094Z,13.10
2022-10-28T01:54:53.323Z,13.10
2022-10-28T01:57:23.416Z,13.20
2022-10-28T01:59:52.372Z,13.30
2022-10-28T02:02:19.924Z,13.40
2022-10-28T02:04:47.392Z,13.50
2022-10-28T02:07:16.480Z,13.50
2022-10-28T02:09:46.865Z,13.60
2022-10-28T02:12:33.876Z,13.60
2022-10-28T02:15:13.509Z,13.60
2022-10-28T02:17:46.799Z,13.60
2022-10-28T02:20:40.890Z,13.60
2022-10-28T02:23:33.333Z,13.60
2022-10-28T02:26:00.887Z,13.60
2022-10-28T02:28:57.523Z,13.60
2022-10-28T02:31:30.481Z,13.60
2022-10-28T02:34:05.805Z,13.70
2022-10-28T02:36:38.997Z,13.70
2022-10-28T02:39:07.604Z,13.70
2022-10-28T02:41:51.428Z,13.80
2022-10-28T02:44:24.983Z,13.70
2022-10-28T02:46:56.570Z,13.70
2022-10-28T02:49:25.576Z,13.70
2022-10-28T02:51:57.966Z,13.70
2022-10-28T02:54:37.783Z,13.70
2022-10-28T02:57:19.644Z,13.70
2022-10-28T03:00:20.780Z,13.60
2022-10-28T03:02:48.482Z,13.60
2022-10-28T03:05:16.055Z,13.50
2022-10-28T03:07:43.636Z,13.50
2022-10-28T03:10:11.098Z,13.40
2022-10-28T03:12:38.631Z,13.30
2022-10-28T03:15:06.560Z,13.30
2022-10-28T03:17:34.291Z,13.20
2022-10-28T03:20:01.758Z,13.10
2022-10-28T03:22:29.300Z,13.00
2022-10-28T03:24:56.676Z,13.00
2022-10-28T03:27:24.204Z,12.90
2022-10-28T03:29:51.700Z,12.80
2022-10-28T03:32:19.188Z,12.90
2022-10-28T03:34:48.426Z,12.80
2022-10-28T03:37:15.872Z,12.80
2022-10-28T03:39:43.336Z,12.70
2022-10-28T03:42:11.348Z,12.70
2022-10-28T03:44:38.852Z,12.70
2022-10-28T03:47:06.414Z,12.60
2022-10-28T03:49:35.381Z,12.60
2022-10-28T03:52:05.130Z,12.60
2022-10-28T03:54:32.631Z,12.60
2022-10-28T03:57:00.133Z,12.60
2022-10-28T03:59:27.644Z,12.50
2022-10-28T04:01:55.360Z,12.50
2022-10-28T04:04:25.012Z,12.40
2022-10-28T04:06:54.565Z,12.40
2022-10-28T04:09:22.032Z,12.50
2022-10-28T04:11:49.520Z,12.50
2022-10-28T04:14:17.054Z,12.60
2022-10-28T04:16:44.517Z,12.60
2022-10-28T04:19:11.958Z,12.70
2022-10-28T04:21:39.432Z,12.70
2022-10-28T04:24:06.932Z,12.70
2022-10-28T04:26:34.429Z,12.60
2022-10-28T04:29:01.837Z,12.50
2022-10-28T04:31:29.274Z,12.50
2022-10-28T04:33:56.813Z,12.60
2022-10-28T04:36:24.372Z,12.70
2022-10-28T04:38:52.040Z,12.70
2022-10-28T04:41:19.579Z,12.80
2022-10-28T04:43:47.058Z,12.80
2022-10-28T04:46:14.590Z,12.70
2022-10-28T04:48:42.060Z,12.70
2022-10-28T04:51:09.574Z,12.70
2022-10-28T04:53:36.979Z,12.70
2022-10-28T04:56:04.691Z,12.80
2022-10-28T04:58:32.175Z,12.80
2022-10-28T05:01:00.685Z,12.80
2022-10-28T05:03:28.155Z,12.80
2022-10-28T05:05:55.591Z,12.80
2022-10-28T05:08:23.001Z,12.80
2022-10-28T05:10:51.208Z,12.80
2022-10-28T05:13:19.616Z,12.80
2022-10-28T05:15:50.330Z,12.80
2022-10-28T05:18:19.241Z,12.80
2022-10-28T05:20:52.803Z,12.70
2022-10-28T05:23:25.910Z,12.80
2022-10-28T05:25:57.573Z,12.70
2022-10-28T05:28:25.095Z,12.70
2022-10-28T05:30:52.593Z,12.70
2022-10-28T05:33:20.043Z,12.70
2022-10-28T05:35:47.647Z,12.70
2022-10-28T05:38:15.527Z,12.70
2022-10-28T05:40:42.982Z,12.70
2022-10-28T05:43:11.302Z,12.60
2022-10-28T05:45:38.819Z,12.60
2022-10-28T05:48:06.753Z,12.60
2022-10-28T05:50:34.389Z,12.70
2022-10-28T05:53:02.045Z,12.60
2022-10-28T05:55:29.724Z,12.70
2022-10-28T05:57:57.959Z,12.70
2022-10-28T06:00:27.343Z,12.80
2022-10-28T06:03:09.374Z,12.80
2022-10-28T06:05:42.193Z,12.80
2022-10-28T06:08:12.517Z,12.80
2022-10-28T06:10:40.860Z,12.80
2022-10-28T06:13:07.740Z,12.80
2022-10-28T06:15:35.277Z,12.80
2022-10-28T06:18:03.109Z,12.80
2022-10-28T06:20:30.607Z,12.80
2022-10-28T06:22:58.100Z,12.80
2022-10-28T06:25:26.129Z,12.80
2022-10-28T06:27:57.932Z,12.70
2022-10-28T06:30:26.848Z,12.70
2022-10-28T06:32:57.671Z,12.60
2022-10-28T06:35:25.294Z,12.60
2022-10-28T06:37:54.868Z,12.50
2022-10-28T06:40:26.209Z,12.50
2022-10-28T06:43:02.561Z,12.50
2022-10-28T06:45:31.998Z,12.40
2022-10-28T06:48:03.314Z,12.40
2022-10-28T06:50:31.264Z,12.60
2022-10-28T06:52:59.204Z,12.50
2022-10-28T06:55:27.780Z,12.60
2022-10-28T06:57:59.961Z,12.70
2022-10-28T07:00:28.841Z,12.70
2022-10-28T07:02:56.962Z,12.70
2022-10-28T07:05:26.938Z,12.80
2022-10-28T07:07:54.830Z,12.80
2022-10-28T07:10:22.621Z,12.80
2022-10-28T07:12:52.295Z,12.70
2022-10-28T07:15:19.910Z,12.60
2022-10-28T07:17:56.366Z,12.70
2022-10-28T07:20:25.937Z,12.70
2022-10-28T07:23:01.097Z,12.70
2022-10-28T07:25:30.655Z,12.70
2022-10-28T07:27:59.165Z,12.80
2022-10-28T07:30:28.589Z,12.80
2022-10-28T07:32:58.603Z,12.80
2022-10-28T07:35:26.348Z,12.90
2022-10-28T07:37:54.048Z,12.90
2022-10-28T07:40:26.122Z,12.90
2022-10-28T07:42:53.802Z,12.90
2022-10-28T07:45:21.425Z,12.90
2022-10-28T07:47:49.150Z,13.00
2022-10-28T07:50:16.660Z,13.00
2022-10-28T07:52:44.586Z,13.00
2022-10-28T07:55:12.498Z,13.00
2022-10-28T07:57:40.053Z,13.10
2022-10-28T08:00:08.190Z,13.10
2022-10-28T08:02:38.842Z,13.10
2022-10-28T08:05:06.978Z,13.10
2022-10-28T08:07:38.438Z,13.10
2022-10-28T08:10:07.088Z,13.10
2022-10-28T08:12:34.655Z,13.20
2022-10-28T08:15:02.875Z,13.20
2022-10-28T08:17:30.746Z,13.20
2022-10-28T08:19:58.363Z,13.30
2022-10-28T08:22:25.808Z,13.20
2022-10-28T08:24:53.357Z,13.30
2022-10-28T08:27:20.827Z,13.20
2022-10-28T08:29:48.383Z,13.30
2022-10-28T08:32:15.849Z,13.30
2022-10-28T08:34:43.766Z,13.30
2022-10-28T08:37:11.438Z,13.30
2022-10-28T08:39:39.028Z,13.30
2022-10-28T08:42:24.408Z,13.30
2022-10-28T08:45:38.969Z,13.30
2022-10-28T08:48:12.528Z,13.30
2022-10-28T08:50:50.480Z,13.30
2022-10-28T08:53:26.833Z,13.30
2022-10-28T08:56:03.573Z,13.30
2022-10-28T08:58:34.761Z,13.30
2022-10-28T09:01:05.289Z,13.30
2022-10-28T09:03:42.110Z,13.30
2022-10-28T09:06:10.988Z,13.40
2022-10-28T09:08:45.299Z,13.40
2022-10-28T09:11:31.203Z,13.40
2022-10-28T09:14:30.678Z,13.40
2022-10-28T09:17:28.850Z,13.40
2022-10-28T09:20:19.596Z,13.40
2022-10-28T09:22:59.650Z,13.40
2022-10-28T09:25:39.064Z,13.40
2022-10-28T09:28:47.967Z,13.40
2022-10-28T09:31:27.303Z,13.40
2022-10-28T09:34:10.792Z,13.40
2022-10-28T09:36:42.327Z,13.50
2022-10-28T09:39:23.968Z,13.50
2022-10-28T09:41:57.318Z,13.50
2022-10-28T09:44:45.682Z,13.50
2022-10-28T09:47:21.546Z,13.50
2022-10-28T09:49:51.655Z,13.50
2022-10-28T09:52:27.197Z,13.50
2022-10-28T09:54:56.271Z,13.50
2022-10-28T09:57:30.585Z,13.50
2022-10-28T10:00:00.079Z,13.50
2022-10-28T10:02:31.192Z,13.50
2022-10-28T10:05:00.959Z,13.50
2022-10-28T10:07:34.856Z,13.50
2022-10-28T10:10:11.597Z,13.40
2022-10-28T10:12:39.667Z,13.40
2022-10-28T10:15:11.759Z,13.50
2022-10-28T10:17:46.167Z,13.50
2022-10-28T10:20:22.871Z,13.40
2022-10-28T10:22:50.603Z,13.40
2022-10-28T10:25:25.837Z,13.50
2022-10-28T10:28:05.941Z,13.50
2022-10-28T10:30:39.803Z,13.50
2022-10-28T10:33:14.967Z,13.50
2022-10-28T10:35:42.534Z,13.50
2022-10-28T10:38:15.598Z,13.50
2022-10-28T10:40:52.566Z,13.60
2022-10-28T10:43:23.296Z,13.60
2022-10-28T10:46:03.611Z,13.60
2022-10-28T10:48:38.279Z,13.70
2022-10-28T10:51:21.031Z,13.70
2022-10-28T10:53:50.507Z,13.70
2022-10-28T10:56:32.858Z,13.70
2022-10-28T10:59:05.278Z,13.80
2022-10-28T11:01:36.966Z,13.90
2022-10-28T11:04:16.033Z,13.90
2022-10-28T11:06:45.083Z,13.90
2022-10-28T11:09:35.708Z,13.90
2022-10-28T11:12:35.675Z,13.90
2022-10-28T11:15:09.003Z,13.90
2022-10-28T11:17:36.477Z,14.00
2022-10-28T11:20:25.568Z,14.10
2022-10-28T11:23:06.205Z,14.10
2022-10-28T11:25:37.839Z,14.30
2022-10-28T11:28:08.511Z,14.40
2022-10-28T11:31:04.206Z,14.40
2022-10-28T11:33:40.685Z,14.40
2022-10-28T11:36:33.076Z,14.50
2022-10-28T11:39:20.694Z,14.50
2022-10-28T11:41:59.910Z,14.60
2022-10-28T11:44:46.443Z,14.60
2022-10-28T11:47:19.623Z,14.50
2022-10-28T11:50:15.865Z,14.60
2022-10-28T11:53:36.238Z,14.70
2022-10-28T11:56:25.595Z,14.80
2022-10-28T11:59:23.480Z,14.90
2022-10-28T12:02:16.480Z,15.00
2022-10-28T12:04:51.033Z,15.00
2022-10-28T12:07:46.292Z,14.80
2022-10-28T12:10:35.765Z,14.80
2022-10-28T12:13:09.074Z,14.90
2022-10-28T12:16:18.305Z,14.80
2022-10-28T12:18:49.029Z,14.80
2022-10-28T12:21:31.947Z,14.80
2022-10-28T12:24:00.655Z,14.70
2022-10-28T12:26:39.909Z,14.80
2022-10-28T12:29:20.781Z,14.80
2022-10-28T12:31:54.046Z,14.90
2022-10-28T12:34:29.980Z,14.90
2022-10-28T12:37:13.119Z,15.00
2022-10-28T12:39:47.779Z,15.20
2022-10-28T12:42:54.505Z,15.20
2022-10-28T12:45:23.216Z,15.20
2022-10-28T12:48:15.249Z,15.30
2022-10-28T12:51:12.582Z,15.30
2022-10-28T12:53:49.143Z,15.50
2022-10-28T12:56:29.534Z,15.20
2022-10-28T12:59:15.851Z,15.20
2022-10-28T13:01:47.244Z,15.30
2022-10-28T13:04:15.145Z,15.40
2022-10-28T13:06:57.441Z,15.40
2022-10-28T13:09:39.248Z,15.30
2022-10-28T13:12:34.961Z,15.30
2022-10-28T13:15:18.339Z,15.30
2022-10-28T13:18:30.603Z,15.30
2022-10-28T13:21:00.844Z,15.10
2022-10-28T13:23:37.202Z,15.20
2022-10-28T13:26:33.609Z,15.20
2022-10-28T13:29:07.429Z,15.10
2022-10-28T13:31:46.150Z,15.10
2022-10-28T13:34:16.628Z,15.20
2022-10-28T13:36:56.565Z,15.20
2022-10-28T13:39:42.258Z,15.10
2022-10-28T13:42:13.024Z,15.10
2022-10-28T13:44:50.994Z,15.10
2022-10-28T13:47:32.070Z,15.10
2022-10-28T13:50:10.997Z,15.10
2022-10-28T13:52:43.603Z,15.20
2022-10-28T13:55:14.211Z,15.00
2022-10-28T13:57:47.688Z,15.00
2022-10-28T14:00:18.313Z,15.00
2022-10-28T14:03:08.563Z,15.10
2022-10-28T14:05:39.361Z,15.10
2022-10-28T14:08:29.636Z,15.00
2022-10-28T14:11:13.792Z,15.00
2022-10-28T14:13:52.186Z,14.90
2022-10-28T14:16:22.737Z,14.70
2022-10-28T14:19:04.222Z,14.60
2022-10-28T14:22:05.752Z,14.50
2022-10-28T14:24:42.101Z,14.40
2022-10-28T14:27:10.013Z,14.40
2022-10-28T14:29:55.770Z,14.30
2022-10-28T14:32:32.773Z,14.30
2022-10-28T14:35:02.559Z,14.20
2022-10-28T14:37:35.837Z,14.20
2022-10-28T14:40:31.101Z,14.10
2022-10-28T14:43:07.878Z,14.00
2022-10-28T14:45:45.114Z,14.00
2022-10-28T14:48:27.997Z,13.90
2022-10-28T14:50:57.470Z,13.80
2022-10-28T14:53:30.527Z,13.80
2022-10-28T14:56:02.239Z,13.80
2022-10-28T14:58:35.303Z,13.80
2022-10-28T15:01:18.480Z,13.70
2022-10-28T15:03:59.396Z,13.80
2022-10-28T15:06:37.451Z,13.60
2022-10-28T15:09:27.227Z,13.70
2022-10-28T15:12:14.082Z,13.70
2022-10-28T15:14:46.921Z,13.70
2022-10-28T15:17:26.238Z,13.70
2022-10-28T15:19:59.491Z,13.60
2022-10-28T15:22:33.265Z,13.60
2022-10-28T15:25:02.279Z,13.60
2022-10-28T15:27:32.203Z,13.60
2022-10-28T15:30:00.253Z,13.50
2022-10-28T15:32:33.034Z,13.50
2022-10-28T15:35:49.386Z,13.50
2022-10-28T15:38:29.321Z,13.50
2022-10-28T15:40:57.604Z,13.50
2022-10-28T15:43:30.841Z,13.40
2022-10-28T15:46:16.857Z,13.30
2022-10-28T15:48:44.332Z,13.30
2022-10-28T15:51:17.171Z,13.30
2022-10-28T15:53:49.260Z,13.30
2022-10-28T15:56:25.784Z,13.20
2022-10-28T15:58:59.137Z,13.10
2022-10-28T16:01:31.475Z,13.20
2022-10-28T16:03:59.274Z,13.10
2022-10-28T16:06:33.691Z,13.10
2022-10-28T16:09:03.415Z,13.10
2022-10-28T16:11:33.669Z,13.00
2022-10-28T16:14:17.771Z,13.10
2022-10-28T16:16:45.360Z,13.00
2022-10-28T16:19:33.063Z,12.90
2022-10-28T16:22:00.623Z,12.90
2022-10-28T16:24:28.041Z,12.90
2022-10-28T16:27:16.655Z,12.90
2022-10-28T16:29:44.492Z,12.80
2022-10-28T16:32:13.132Z,12.70
2022-10-28T16:34:41.264Z,12.70
2022-10-28T16:37:20.618Z,12.60
2022-10-28T16:39:48.697Z,12.60
2022-10-28T16:42:16.426Z,12.50
2022-10-28T16:44:44.052Z,12.50
2022-10-28T16:47:13.692Z,12.50
2022-10-28T16:49:41.964Z,12.50
2022-10-28T16:52:21.009Z,12.50
2022-10-28T16:54:49.711Z,12.50
2022-10-28T16:57:19.567Z,12.50
2022-10-28T16:59:47.918Z,12.50
2022-10-28T17:02:19.363Z,12.50
2022-10-28T17:04:47.098Z,12.50
2022-10-28T17:07:16.397Z,12.50
2022-10-28T17:09:44.502Z,12.50
2022-10-28T17:12:16.987Z,12.40
2022-10-28T17:14:44.604Z,12.40
2022-10-28T17:17:12.975Z,12.40
2022-10-28T17:19:41.146Z,12.40
2022-10-28T17:22:10.655Z,12.40
2022-10-28T17:24:38.661Z,12.40
2022-10-28T17:27:06.898Z,12.40
2022-10-28T17:29:34.992Z,12.30
2022-10-28T17:32:02.611Z,12.40
2022-10-28T17:34:30.224Z,12.40
2022-10-28T17:36:57.821Z,12.40
2022-10-28T17:39:26.568Z,12.40
2022-10-28T17:41:54.249Z,12.40
2022-10-28T17:44:21.841Z,12.30
2022-10-28T17:46:49.831Z,12.30
2022-10-28T17:49:18.213Z,12.30
2022-10-28T17:51:45.811Z,12.30
2022-10-28T17:54:13.436Z,12.30
2022-10-28T17:56:42.288Z,12.30
2022-10-28T17:59:09.986Z,12.40
2022-10-28T18:01:37.522Z,12.50
2022-10-28T18:04:06.246Z,12.50
2022-10-28T18:06:34.133Z,12.40
2022-10-28T18:09:01.863Z,12.40
2022-10-28T18:11:31.803Z,12.50
2022-10-28T18:13:59.545Z,12.50
2022-10-28T18:16:30.174Z,12.40
2022-10-28T18:19:02.389Z,12.40
2022-10-28T18:21:29.895Z,12.40
2022-10-28T18:24:04.155Z,12.40
2022-10-28T18:26:33.540Z,12.40
2022-10-28T18:29:04.150Z,12.40
2022-10-28T18:31:33.148Z,12.40
2022-10-28T18:34:01.673Z,12.40
2022-10-28T18:36:34.447Z,12.30
2022-10-28T18:39:07.025Z,12.40
2022-10-28T18:41:41.463Z,12.30
2022-10-28T18:44:17.132Z,12.30
2022-10-28T18:46:45.943Z,12.20
2022-10-28T18:49:13.445Z,12.20
2022-10-28T18:51:40.957Z,12.20
2022-10-28T18:54:08.391Z,12.20
2022-10-28T18:56:35.869Z,12.20
2022-10-28T18:59:04.822Z,12.20
2022-10-28T19:01:33.148Z,12.20
2022-10-28T19:04:04.350Z,12.20
2022-10-28T19:06:33.431Z,12.30
2022-10-28T19:09:04.169Z,12.30
2022-10-28T19:11:32.933Z,12.30
2022-10-28T19:14:05.180Z,12.40
2022-10-28T19:16:34.246Z,12.40
2022-10-28T19:19:04.398Z,12.40
2022-10-28T19:21:33.075Z,12.50
2022-10-28T19:24:00.565Z,12.50
2022-10-28T19:26:28.564Z,12.50
2022-10-28T19:28:57.595Z,12.60
2022-10-28T19:31:27.034Z,12.60
2022-10-28T19:33:55.114Z,12.60
2022-10-28T19:36:25.115Z,12.70
2022-10-28T19:38:53.971Z,12.70
2022-10-28T19:41:24.102Z,12.70
2022-10-28T19:43:58.206Z,12.70
2022-10-28T19:46:28.592Z,12.60
2022-10-28T19:48:58.358Z,12.60
2022-10-28T19:51:31.047Z,12.60
2022-10-28T19:54:01.108Z,12.50
2022-10-28T19:56:30.852Z,12.50
2022-10-28T19:59:00.322Z,12.50
2022-10-28T20:01:31.060Z,12.50
2022-10-28T20:03:59.208Z,12.40
2022-10-28T20:06:31.266Z,12.40
2022-10-28T20:08:59.109Z,12.40
2022-10-28T20:11:29.117Z,12.40
2022-10-28T20:14:00.953Z,12.40
2022-10-28T20:16:29.065Z,12.40
2022-10-28T20:18:57.877Z,12.50
2022-10-28T20:21:27.963Z,12.50
2022-10-28T20:23:57.166Z,12.40
2022-10-28T20:26:27.898Z,12.50
2022-10-28T20:28:56.088Z,12.50
2022-10-28T20:31:26.135Z,12.50
2022-10-28T20:33:59.734Z,12.40
2022-10-28T20:36:29.360Z,12.40
2022-10-28T20:38:59.564Z,12.50
2022-10-28T20:41:30.361Z,12.40
2022-10-28T20:43:58.316Z,12.40
2022-10-28T20:46:26.182Z,12.50
2022-10-28T20:48:54.418Z,12.40
2022-10-28T20:51:23.668Z,12.50
2022-10-28T20:53:51.533Z,12.40
2022-10-28T20:56:27.268Z,12.40
2022-10-28T20:58:56.207Z,12.40
2022-10-28T21:01:24.861Z,12.40
2022-10-28T21:03:57.833Z,12.40
2022-10-28T21:06:25.920Z,12.40
2022-10-28T21:08:54.617Z,12.40
2022-10-28T21:11:23.627Z,12.40
2022-10-28T21:13:53.292Z,12.40
2022-10-28T21:16:21.598Z,12.40
2022-10-28T21:18:50.355Z,12.40
2022-10-28T21:21:19.711Z,12.50
2022-10-28T21:23:47.219Z,12.50
2022-10-28T21:26:15.231Z,12.50
2022-10-28T21:28:43.711Z,12.50
2022-10-28T21:31:13.814Z,12.60
2022-10-28T21:33:42.612Z,12.60
2022-10-28T21:36:13.203Z,12.60
2022-10-28T21:38:41.117Z,12.60
2022-10-28T21:41:20.553Z,12.60
2022-10-28T21:43:49.917Z,12.60
2022-10-28T21:46:18.956Z,12.60
2022-10-28T21:48:46.973Z,12.60
2022-10-28T21:51:15.702Z,12.60
2022-10-28T21:53:44.489Z,12.70
2022-10-28T21:56:19.021Z,12.60
2022-10-28T21:58:48.917Z,12.70
2022-10-28T22:01:21.884Z,12.70
2022-10-28T22:03:51.014Z,12.70
2022-10-28T22:06:18.599Z,12.60
2022-10-28T22:08:46.976Z,12.60
2022-10-28T22:11:17.285Z,12.60
2022-10-28T22:13:45.285Z,12.60
2022-10-28T22:16:18.799Z,12.60
2022-10-28T22:18:46.806Z,12.60
2022-10-28T22:21:17.097Z,12.50
2022-10-28T22:23:44.864Z,12.50
2022-10-28T22:26:20.922Z,12.50
2022-10-28T22:28:48.684Z,12.40
2022-10-28T22:31:18.542Z,12.50
2022-10-28T22:36:22.576Z,12.40
2022-10-28T22:38:50.742Z,12.30
2022-10-28T22:41:26.861Z,12.30
2022-10-28T22:43:56.981Z,12.20
2022-10-28T22:46:26.741Z,12.20
2022-10-28T22:48:54.250Z,12.10
2022-10-28T22:51:22.347Z,12.10
2022-10-28T22:53:50.292Z,12.00
2022-10-28T22:56:24.330Z,12.00
2022-10-28T22:58:57.699Z,12.00
2022-10-28T23:01:26.593Z,12.00
2022-10-28T23:03:54.964Z,12.00
2022-10-28T23:06:25.102Z,11.90
2022-10-28T23:08:53.291Z,11.90
2022-10-28T23:11:21.641Z,11.90
2022-10-28T23:13:53.608Z,11.90
2022-10-28T23:16:22.803Z,11.90
2022-10-28T23:18:50.591Z,11.90
2022-10-28T23:21:20.685Z,11.80
2022-10-28T23:23:53.970Z,11.80
2022-10-28T23:26:22.675Z,11.80
2022-10-28T23:28:52.809Z,11.70
2022-10-28T23:31:21.728Z,11.80
2022-10-28T23:33:49.762Z,11.80
2022-10-28T23:36:17.716Z,11.80
2022-10-28T23:38:45.427Z,11.80
2022-10-28T23:41:18.633Z,11.80
2022-10-28T23:43:48.733Z,11.80
2022-10-28T23:46:16.555Z,11.80
2022-10-28T23:48:44.124Z,11.80
2022-10-28T23:51:11.679Z,11.80
2022-10-28T23:53:39.319Z,11.80
2022-10-28T23:56:10.024Z,11.80
2022-10-28T23:58:37.634Z,11.80
